AFR2870 TFFF-TFFR
Flight info
| Callsign | AFR2870 |
|---|---|
| Flight time | 0h 28m |
| Altitude | 12000 |
| Route | LIDOS2R LIDOS DCT PPR |
| Aircraft | AT45/M-SDFGIRY/S |
Departure
| Time | 2026-05-06 16:35 |
|---|---|
| Airport | Martinique Aimé Césaire International Airport (TFFF) |
Arrival
| Time | 2026-05-06 17:03 |
|---|---|
| Airport | Maryse Condé International Airport (TFFR) |
| Time | Latitude | Longitude | Altitude | Speed | Heading |
|---|---|---|---|---|---|
| 2026-05-06 16:29 | 14.59414 | -60.99821 | 17 ft | 0 kts | 141° |
| 2026-05-06 16:32 | 14.59375 | -60.99880 | 17 ft | 28 kts | 261° |
| 2026-05-06 16:32 | 14.59317 | -61.00083 | 17 ft | 32 kts | 252° |
| 2026-05-06 16:32 | 14.59274 | -61.00318 | 16 ft | 32 kts | 260° |
| 2026-05-06 16:32 | 14.59237 | -61.00532 | 16 ft | 29 kts | 260° |
| 2026-05-06 16:33 | 14.59208 | -61.00681 | 16 ft | 10 kts | 237° |
| 2026-05-06 16:33 | 14.59156 | -61.00686 | 16 ft | 7 kts | 168° |
| 2026-05-06 16:33 | 14.59100 | -61.00677 | 16 ft | 18 kts | 171° |
| 2026-05-06 16:34 | 14.59063 | -61.00569 | 16 ft | 0 kts | 81° |
| 2026-05-06 16:34 | 14.59065 | -61.00553 | 15 ft | 16 kts | 79° |
| 2026-05-06 16:34 | 14.59120 | -61.00238 | 17 ft | 77 kts | 79° |
| 2026-05-06 16:35 | 14.59257 | -60.99489 | 129 ft | 126 kts | 79° |
| 2026-05-06 16:35 | 14.59458 | -60.98579 | 769 ft | 131 kts | 75° |
| 2026-05-06 16:35 | 14.59673 | -60.97564 | 1291 ft | 158 kts | 77° |
| 2026-05-06 16:35 | 14.59900 | -60.96447 | 1972 ft | 167 kts | 80° |
| 2026-05-06 16:36 | 14.60116 | -60.95180 | 2369 ft | 190 kts | 81° |
| 2026-05-06 16:36 | 14.60308 | -60.93771 | 2851 ft | 205 kts | 83° |
| 2026-05-06 16:36 | 14.60508 | -60.92278 | 3380 ft | 214 kts | 83° |
| 2026-05-06 16:36 | 14.60721 | -60.90740 | 3907 ft | 218 kts | 82° |
| 2026-05-06 16:37 | 14.61114 | -60.89235 | 4599 ft | 217 kts | 61° |
| 2026-05-06 16:37 | 14.62265 | -60.88301 | 5376 ft | 221 kts | 22° |
| 2026-05-06 16:37 | 14.63836 | -60.88322 | 6051 ft | 232 kts | 343° |
| 2026-05-06 16:37 | 14.65197 | -60.89240 | 6629 ft | 239 kts | 322° |
| 2026-05-06 16:38 | 14.66296 | -60.90503 | 7241 ft | 243 kts | 296° |
| 2026-05-06 16:38 | 14.66577 | -60.92199 | 7905 ft | 242 kts | 260° |
| 2026-05-06 16:38 | 14.66232 | -60.93827 | 8610 ft | 230 kts | 272° |
| 2026-05-06 16:38 | 14.66776 | -60.95392 | 9228 ft | 235 kts | 306° |
| 2026-05-06 16:39 | 14.67934 | -60.96642 | 9599 ft | 252 kts | 328° |
| 2026-05-06 16:39 | 14.69555 | -60.97153 | 10247 ft | 240 kts | 7° |
| 2026-05-06 16:39 | 14.71149 | -60.96724 | 10854 ft | 237 kts | 22° |
| 2026-05-06 16:39 | 14.72713 | -60.96271 | 11663 ft | 226 kts | 5° |
| 2026-05-06 16:40 | 14.73727 | -60.96310 | 12035 ft | 224 kts | 0° |
| 2026-05-06 16:40 | 14.75356 | -60.96429 | 12146 ft | 239 kts | 358° |
| 2026-05-06 16:40 | 14.77571 | -60.96620 | 12534 ft | 244 kts | 359° |
| 2026-05-06 16:40 | 14.79318 | -60.96738 | 12541 ft | 258 kts | 360° |
| 2026-05-06 16:41 | 14.80549 | -60.96813 | 12554 ft | 266 kts | 360° |
| 2026-05-06 16:41 | 14.82418 | -60.96920 | 12717 ft | 270 kts | 360° |
| 2026-05-06 16:41 | 14.84232 | -60.97025 | 13261 ft | 256 kts | 360° |
| 2026-05-06 16:41 | 14.85965 | -60.97117 | 13905 ft | 244 kts | 0° |
| 2026-05-06 16:42 | 14.87712 | -60.97183 | 13965 ft | 257 kts | 1° |
| 2026-05-06 16:42 | 14.89536 | -60.97211 | 13972 ft | 267 kts | 2° |
| 2026-05-06 16:42 | 14.91428 | -60.97191 | 13986 ft | 276 kts | 4° |
| 2026-05-06 16:42 | 14.93369 | -60.97086 | 13988 ft | 282 kts | 7° |
| 2026-05-06 16:43 | 14.95319 | -60.96780 | 13987 ft | 286 kts | 14° |
| 2026-05-06 16:43 | 14.97297 | -60.96397 | 13985 ft | 292 kts | 9° |
| 2026-05-06 16:43 | 14.99348 | -60.96328 | 13985 ft | 298 kts | 359° |
| 2026-05-06 16:43 | 15.01408 | -60.96630 | 13990 ft | 300 kts | 351° |
| 2026-05-06 16:44 | 15.03460 | -60.97089 | 13986 ft | 302 kts | 349° |
| 2026-05-06 16:44 | 15.05490 | -60.97554 | 13990 ft | 303 kts | 350° |
| 2026-05-06 16:44 | 15.07561 | -60.97999 | 13983 ft | 304 kts | 351° |
| 2026-05-06 16:44 | 15.09639 | -60.98404 | 13985 ft | 304 kts | 352° |
| 2026-05-06 16:45 | 15.11724 | -60.98803 | 13989 ft | 305 kts | 352° |
| 2026-05-06 16:45 | 15.13814 | -60.99203 | 13989 ft | 305 kts | 352° |
| 2026-05-06 16:45 | 15.15898 | -60.99602 | 13989 ft | 301 kts | 352° |
| 2026-05-06 16:45 | 15.17940 | -60.99989 | 13986 ft | 296 kts | 352° |
| 2026-05-06 16:46 | 15.19950 | -61.00374 | 13990 ft | 292 kts | 352° |
| 2026-05-06 16:46 | 15.21942 | -61.00759 | 13987 ft | 289 kts | 352° |
| 2026-05-06 16:46 | 15.23913 | -61.01143 | 13986 ft | 287 kts | 352° |
| 2026-05-06 16:46 | 15.25873 | -61.01530 | 13989 ft | 286 kts | 351° |
| 2026-05-06 16:47 | 15.27801 | -61.01912 | 13992 ft | 284 kts | 352° |
| 2026-05-06 16:47 | 15.29767 | -61.02304 | 13988 ft | 284 kts | 351° |
| 2026-05-06 16:47 | 15.31683 | -61.02688 | 13991 ft | 283 kts | 352° |
| 2026-05-06 16:47 | 15.33615 | -61.03073 | 13998 ft | 282 kts | 352° |
| 2026-05-06 16:48 | 15.35550 | -61.03448 | 14001 ft | 285 kts | 352° |
| 2026-05-06 16:48 | 15.37519 | -61.03836 | 14006 ft | 291 kts | 351° |
| 2026-05-06 16:48 | 15.39522 | -61.04228 | 14012 ft | 295 kts | 351° |
| 2026-05-06 16:48 | 15.41557 | -61.04611 | 14014 ft | 299 kts | 352° |
| 2026-05-06 16:49 | 15.43611 | -61.04994 | 14013 ft | 301 kts | 352° |
| 2026-05-06 16:49 | 15.45688 | -61.05385 | 14016 ft | 303 kts | 351° |
| 2026-05-06 16:49 | 15.47765 | -61.05789 | 14018 ft | 304 kts | 351° |
| 2026-05-06 16:49 | 15.49845 | -61.06199 | 14016 ft | 305 kts | 351° |
| 2026-05-06 16:50 | 15.51941 | -61.06611 | 14015 ft | 306 kts | 351° |
| 2026-05-06 16:50 | 15.54008 | -61.07017 | 14017 ft | 306 kts | 351° |
| 2026-05-06 16:50 | 15.56075 | -61.07413 | 13841 ft | 291 kts | 352° |
| 2026-05-06 16:50 | 15.57957 | -61.07841 | 13676 ft | 266 kts | 340° |
| 2026-05-06 16:51 | 15.59431 | -61.08877 | 13529 ft | 248 kts | 322° |
| 2026-05-06 16:51 | 15.60696 | -61.10022 | 13325 ft | 241 kts | 320° |
| 2026-05-06 16:51 | 15.62002 | -61.11267 | 13102 ft | 266 kts | 319° |
| 2026-05-06 16:51 | 15.63410 | -61.12621 | 12880 ft | 285 kts | 319° |
| 2026-05-06 16:52 | 15.64963 | -61.13968 | 12664 ft | 297 kts | 326° |
| 2026-05-06 16:52 | 15.66693 | -61.15207 | 12432 ft | 305 kts | 327° |
| 2026-05-06 16:52 | 15.68402 | -61.16398 | 12049 ft | 287 kts | 328° |
| 2026-05-06 16:52 | 15.69999 | -61.17509 | 11663 ft | 274 kts | 328° |
| 2026-05-06 16:53 | 15.71622 | -61.18662 | 11278 ft | 291 kts | 327° |
| 2026-05-06 16:53 | 15.73339 | -61.19893 | 10908 ft | 303 kts | 327° |
| 2026-05-06 16:53 | 15.75025 | -61.21077 | 10549 ft | 284 kts | 328° |
| 2026-05-06 16:53 | 15.76620 | -61.22197 | 10179 ft | 273 kts | 328° |
| 2026-05-06 16:54 | 15.78207 | -61.23339 | 10085 ft | 282 kts | 327° |
| 2026-05-06 16:54 | 15.79836 | -61.24528 | 10044 ft | 284 kts | 328° |
| 2026-05-06 16:54 | 15.81483 | -61.25717 | 10020 ft | 292 kts | 327° |
| 2026-05-06 16:54 | 15.83146 | -61.26911 | 10013 ft | 297 kts | 327° |
| 2026-05-06 16:55 | 15.84860 | -61.28141 | 9999 ft | 301 kts | 328° |
| 2026-05-06 16:55 | 15.86590 | -61.29378 | 9996 ft | 303 kts | 328° |
| 2026-05-06 16:55 | 15.88336 | -61.30622 | 10034 ft | 302 kts | 328° |
| 2026-05-06 16:55 | 15.89985 | -61.31785 | 10036 ft | 272 kts | 328° |
| 2026-05-06 16:56 | 15.91504 | -61.32860 | 10008 ft | 267 kts | 328° |
| 2026-05-06 16:56 | 15.93071 | -61.34002 | 9882 ft | 283 kts | 327° |
| 2026-05-06 16:56 | 15.94729 | -61.35188 | 9570 ft | 293 kts | 328° |
| 2026-05-06 16:56 | 15.96441 | -61.36385 | 9274 ft | 300 kts | 328° |
| 2026-05-06 16:57 | 15.98187 | -61.37604 | 8999 ft | 304 kts | 328° |
| 2026-05-06 16:57 | 15.99949 | -61.38835 | 8724 ft | 305 kts | 328° |
| 2026-05-06 16:57 | 16.01664 | -61.40027 | 8440 ft | 284 kts | 328° |
| 2026-05-06 16:57 | 16.03249 | -61.41138 | 8139 ft | 266 kts | 328° |
| 2026-05-06 16:58 | 16.04741 | -61.42199 | 7792 ft | 254 kts | 328° |
| 2026-05-06 16:58 | 16.06148 | -61.43208 | 7461 ft | 244 kts | 328° |
| 2026-05-06 16:58 | 16.07473 | -61.44280 | 6997 ft | 242 kts | 322° |
| 2026-05-06 16:58 | 16.08783 | -61.45434 | 6287 ft | 251 kts | 322° |
| 2026-05-06 16:59 | 16.10122 | -61.46586 | 5876 ft | 244 kts | 324° |
| 2026-05-06 16:59 | 16.11405 | -61.47691 | 5429 ft | 241 kts | 320° |
| 2026-05-06 16:59 | 16.12631 | -61.48888 | 4951 ft | 239 kts | 320° |
| 2026-05-06 16:59 | 16.13929 | -61.49930 | 4513 ft | 234 kts | 327° |
| 2026-05-06 17:00 | 16.15248 | -61.50900 | 4072 ft | 231 kts | 328° |
| 2026-05-06 17:00 | 16.16588 | -61.51837 | 3591 ft | 231 kts | 329° |
| 2026-05-06 17:00 | 16.17956 | -61.52838 | 3136 ft | 256 kts | 323° |
| 2026-05-06 17:00 | 16.19298 | -61.54109 | 2693 ft | 263 kts | 318° |
| 2026-05-06 17:01 | 16.20607 | -61.55416 | 2122 ft | 257 kts | 320° |
| 2026-05-06 17:01 | 16.21900 | -61.56587 | 1698 ft | 245 kts | 322° |
| 2026-05-06 17:01 | 16.23241 | -61.57687 | 1170 ft | 238 kts | 329° |
| 2026-05-06 17:01 | 16.24595 | -61.58315 | 1393 ft | 196 kts | 351° |
| 2026-05-06 17:02 | 16.25852 | -61.58343 | 1311 ft | 162 kts | 17° |
| 2026-05-06 17:02 | 16.26699 | -61.57903 | 1275 ft | 115 kts | 52° |
| 2026-05-06 17:02 | 16.27178 | -61.57241 | 840 ft | 113 kts | 76° |
| 2026-05-06 17:02 | 16.27138 | -61.56444 | 479 ft | 106 kts | 111° |
| 2026-05-06 17:03 | 16.26997 | -61.55671 | 327 ft | 120 kts | 104° |
| 2026-05-06 17:03 | 16.26843 | -61.54868 | 134 ft | 105 kts | 104° |
| 2026-05-06 17:03 | 16.26720 | -61.54203 | 16 ft | 84 kts | 103° |
| 2026-05-06 17:03 | 16.26652 | -61.53840 | 18 ft | 38 kts | 101° |
| 2026-05-06 17:04 | 16.26609 | -61.53600 | 22 ft | 28 kts | 102° |
| 2026-05-06 17:04 | 16.26561 | -61.53351 | 24 ft | 33 kts | 99° |
| 2026-05-06 17:04 | 16.26520 | -61.53130 | 23 ft | 41 kts | 103° |
| 2026-05-06 17:04 | 16.26563 | -61.52983 | 25 ft | 26 kts | 12° |
| 2026-05-06 17:05 | 16.26796 | -61.52938 | 25 ft | 25 kts | 12° |
| 2026-05-06 17:05 | 16.26904 | -61.52949 | 25 ft | 27 kts | 327° |
| 2026-05-06 17:05 | 16.27015 | -61.52993 | 24 ft | 10 kts | 355° |
| 2026-05-06 17:05 | 16.27043 | -61.53002 | 24 ft | 3 kts | 348° |
| 2026-05-06 17:06 | 16.27044 | -61.53003 | 24 ft | 0 kts | 346° |